PWSweather.com
Personal Weather Stations
Station Observations
ISYDDANM23
Felsted, AabenraaDK 6200

FelstedAabenraaDK 6200

Lat: 54.977066, Lon: 9.507192

Elevation: 135

Station Type: Davis Vantage Pro 2 Plus 24H

http://www.valkaer.dk

High Low Average
Temperature 71.3°F21.8°C 52.7°F11.5°C 63.0°F17.2°C
Dew Point 57.1°F13.9°C 50.3°F10.2°C 53.6°F12.0°C
Winds 13.8 mph 22.2 kmh Calm Calm 5.0 mph S8.0 kmh S
Wind Gusts 19.6 mph31.5 kmh 1.2 mph1.9 kmh 7.0 mph11.3 kmh
Humidity 93% 50% 73%
Pressure 29.94 in1013.9 mb 29.79 in1008.8 mb -
Precipitation 0.02 in0.5 mm - -
Hour Temp Dew Point Humidity Winds Wind Gusts Pressure Precip Precip Rate Daily Precip Total
12:00 AM 58.6°F14.8°C 55.4°F13.0°C 89% 6.9 mph SW11.1 kmh SW 9.2 mph14.8 kmh 29.79 in1008.8 mb - 0.01 in0.3 mm 0.01 in0.3 mm
12:10 AM 58.3°F14.6°C 55.4°F13.0°C 90% 6.9 mph SW11.1 kmh SW 9.2 mph14.8 kmh 29.79 in1008.8 mb - 0.01 in0.3 mm 0.01 in0.3 mm
12:15 AM 58.3°F14.6°C 55.4°F13.0°C 90% 6.9 mph SW11.1 kmh SW 11.5 mph18.5 kmh 29.79 in1008.8 mb - 0.01 in0.3 mm 0.01 in0.3 mm
12:20 AM 58.1°F14.5°C 55.2°F12.9°C 90% 5.8 mph SW9.3 kmh SW 5.8 mph9.3 kmh 29.79 in1008.8 mb - 0.01 in0.3 mm 0.01 in0.3 mm
12:25 AM 57.9°F14.4°C 55.0°F12.8°C 90% 4.6 mph SW7.4 kmh SW 5.8 mph9.3 kmh 29.79 in1008.8 mb - 0.00 in0.0 mm 0.01 in0.3 mm
12:30 AM 57.8°F14.3°C 55.2°F12.9°C 91% 5.8 mph SW9.3 kmh SW 5.8 mph9.3 kmh 29.79 in1008.8 mb - 0.00 in0.0 mm 0.01 in0.3 mm
12:35 AM 57.7°F14.3°C 55.1°F12.8°C 91% 5.8 mph SW9.3 kmh SW 10.4 mph16.7 kmh 29.79 in1008.8 mb - 0.00 in0.0 mm 0.01 in0.3 mm
12:40 AM 57.7°F14.3°C 55.1°F12.8°C 91% 8.1 mph SW13.0 kmh SW 11.5 mph18.5 kmh 29.79 in1008.8 mb - 0.00 in0.0 mm 0.01 in0.3 mm
12:45 AM 57.9°F14.4°C 55.3°F12.9°C 91% 9.2 mph SW14.8 kmh SW 12.7 mph20.4 kmh 29.79 in1008.8 mb - 0.00 in0.0 mm 0.01 in0.3 mm
12:50 AM 57.9°F14.4°C 55.3°F12.9°C 91% 9.2 mph SW14.8 kmh SW 11.5 mph18.5 kmh 29.79 in1008.8 mb - 0.00 in0.0 mm 0.01 in0.3 mm
12:55 AM 58.0°F14.4°C 55.4°F13.0°C 91% 8.1 mph SW13.0 kmh SW 10.4 mph16.7 kmh 29.79 in1008.8 mb - 0.00 in0.0 mm 0.01 in0.3 mm
01:00 AM 57.8°F14.3°C 55.2°F12.9°C 91% 5.8 mph SW9.3 kmh SW 10.4 mph16.7 kmh 29.79 in1008.8 mb - 0.00 in0.0 mm 0.01 in0.3 mm
01:10 AM 57.6°F14.2°C 55.0°F12.8°C 91% 4.6 mph SW7.4 kmh SW 5.8 mph9.3 kmh 29.80 in1009.1 mb - 0.00 in0.0 mm 0.01 in0.3 mm
01:15 AM 57.4°F14.1°C 54.8°F12.7°C 91% 6.9 mph SW11.1 kmh SW 10.4 mph16.7 kmh 29.80 in1009.1 mb - 0.00 in0.0 mm 0.01 in0.3 mm
01:20 AM 57.4°F14.1°C 54.8°F12.7°C 91% 4.6 mph SW7.4 kmh SW 5.8 mph9.3 kmh 29.80 in1009.1 mb - 0.00 in0.0 mm 0.01 in0.3 mm
01:25 AM 57.3°F14.1°C 54.7°F12.6°C 91% 5.8 mph SW9.3 kmh SW 6.9 mph11.1 kmh 29.80 in1009.1 mb - 0.00 in0.0 mm 0.01 in0.3 mm
01:30 AM 57.1°F13.9°C 54.5°F12.5°C 91% 4.6 mph SW7.4 kmh SW 5.8 mph9.3 kmh 29.80 in1009.1 mb - 0.00 in0.0 mm 0.01 in0.3 mm
01:35 AM 56.8°F13.8°C 54.2°F12.3°C 91% 3.5 mph SSW5.6 kmh SSW 3.5 mph5.6 kmh 29.80 in1009.1 mb - 0.00 in0.0 mm 0.01 in0.3 mm
01:40 AM 56.6°F13.7°C 54.0°F12.2°C 91% 2.3 mph SSW3.7 kmh SSW 3.5 mph5.6 kmh 29.80 in1009.1 mb - 0.00 in0.0 mm 0.01 in0.3 mm
01:45 AM 56.3°F13.5°C 53.7°F12.1°C 91% 3.5 mph SSW5.6 kmh SSW 4.6 mph7.4 kmh 29.80 in1009.1 mb - 0.00 in0.0 mm 0.01 in0.3 mm
01:50 AM 56.2°F13.4°C 53.6°F12.0°C 91% 3.5 mph SSW5.6 kmh SSW 3.5 mph5.6 kmh 29.80 in1009.1 mb - 0.00 in0.0 mm 0.01 in0.3 mm
01:55 AM 56.0°F13.3°C 53.4°F11.9°C 91% 3.5 mph SW5.6 kmh SW 4.6 mph7.4 kmh 29.80 in1009.1 mb - 0.00 in0.0 mm 0.01 in0.3 mm
02:00 AM 55.8°F13.2°C 53.2°F11.8°C 91% 3.5 mph SW5.6 kmh SW 4.6 mph7.4 kmh 29.80 in1009.1 mb - 0.00 in0.0 mm 0.01 in0.3 mm
02:10 AM 55.8°F13.2°C 53.5°F11.9°C 92% 4.6 mph SW7.4 kmh SW 9.2 mph14.8 kmh 29.79 in1008.8 mb - 0.00 in0.0 mm 0.01 in0.3 mm
02:15 AM 56.0°F13.3°C 53.7°F12.1°C 92% 4.6 mph SW7.4 kmh SW 6.9 mph11.1 kmh 29.80 in1009.1 mb - 0.00 in0.0 mm 0.01 in0.3 mm
02:20 AM 56.1°F13.4°C 53.8°F12.1°C 92% 3.5 mph SW5.6 kmh SW 8.1 mph13.0 kmh 29.79 in1008.8 mb - 0.00 in0.0 mm 0.01 in0.3 mm
02:25 AM 56.1°F13.4°C 53.5°F11.9°C 91% 3.5 mph SW5.6 kmh SW 5.8 mph9.3 kmh 29.80 in1009.1 mb - 0.00 in0.0 mm 0.01 in0.3 mm
02:30 AM 56.0°F13.3°C 53.4°F11.9°C 91% 3.5 mph SW5.6 kmh SW 5.8 mph9.3 kmh 29.80 in1009.1 mb - 0.00 in0.0 mm 0.01 in0.3 mm
02:35 AM 55.7°F13.2°C 53.1°F11.7°C 91% 2.3 mph SW3.7 kmh SW 3.5 mph5.6 kmh 29.79 in1008.8 mb - 0.00 in0.0 mm 0.01 in0.3 mm
02:40 AM 55.6°F13.1°C 53.0°F11.7°C 91% 2.3 mph SW3.7 kmh SW 3.5 mph5.6 kmh 29.80 in1009.1 mb - 0.00 in0.0 mm 0.01 in0.3 mm
02:45 AM 55.5°F13.1°C 53.2°F11.8°C 92% 3.5 mph SW5.6 kmh SW 4.6 mph7.4 kmh 29.80 in1009.1 mb - 0.00 in0.0 mm 0.01 in0.3 mm
02:50 AM 55.4°F13.0°C 52.8°F11.6°C 91% 2.3 mph SW3.7 kmh SW 3.5 mph5.6 kmh 29.79 in1008.8 mb - 0.00 in0.0 mm 0.01 in0.3 mm
02:55 AM 55.2°F12.9°C 52.6°F11.4°C 91% 3.5 mph SSW5.6 kmh SSW 3.5 mph5.6 kmh 29.80 in1009.1 mb - 0.00 in0.0 mm 0.01 in0.3 mm
03:00 AM 55.0°F12.8°C 52.4°F11.3°C 91% 3.5 mph SW5.6 kmh SW 3.5 mph5.6 kmh 29.80 in1009.1 mb - 0.00 in0.0 mm 0.01 in0.3 mm
03:10 AM 54.8°F12.7°C 52.6°F11.4°C 92% 2.3 mph SSE3.7 kmh SSE 2.3 mph3.7 kmh 29.80 in1009.1 mb - 0.00 in0.0 mm 0.01 in0.3 mm
03:15 AM 54.7°F12.6°C 52.5°F11.4°C 92% 1.2 mph SSE1.9 kmh SSE 2.3 mph3.7 kmh 29.80 in1009.1 mb - 0.00 in0.0 mm 0.01 in0.3 mm
03:20 AM 54.4°F12.4°C 52.1°F11.2°C 92% 1.2 mph S1.9 kmh S 3.5 mph5.6 kmh 29.80 in1009.1 mb - 0.00 in0.0 mm 0.01 in0.3 mm
03:25 AM 54.3°F12.4°C 52.0°F11.1°C 92% 2.3 mph S3.7 kmh S 3.5 mph5.6 kmh 29.80 in1009.1 mb - 0.00 in0.0 mm 0.01 in0.3 mm
03:30 AM 54.1°F12.3°C 51.8°F11.0°C 92% 1.2 mph SSE1.9 kmh SSE 3.5 mph5.6 kmh 29.81 in1009.5 mb - 0.00 in0.0 mm 0.01 in0.3 mm
03:35 AM 54.0°F12.2°C 51.7°F10.9°C 92% 3.5 mph S5.6 kmh S 4.6 mph7.4 kmh 29.81 in1009.5 mb - 0.00 in0.0 mm 0.01 in0.3 mm
03:40 AM 54.0°F12.2°C 51.7°F10.9°C 92% 2.3 mph S3.7 kmh S 3.5 mph5.6 kmh 29.81 in1009.5 mb - 0.00 in0.0 mm 0.01 in0.3 mm
03:45 AM 53.9°F12.2°C 51.6°F10.9°C 92% 2.3 mph S3.7 kmh S 3.5 mph5.6 kmh 29.81 in1009.5 mb - 0.00 in0.0 mm 0.01 in0.3 mm
03:50 AM 53.7°F12.1°C 51.4°F10.8°C 92% 2.3 mph SW3.7 kmh SW 3.5 mph5.6 kmh 29.81 in1009.5 mb - 0.00 in0.0 mm 0.01 in0.3 mm
03:55 AM 53.5°F11.9°C 51.2°F10.7°C 92% 1.2 mph SSW1.9 kmh SSW 2.3 mph3.7 kmh 29.81 in1009.5 mb - 0.00 in0.0 mm 0.01 in0.3 mm
04:00 AM 53.4°F11.9°C 51.1°F10.6°C 92% 2.3 mph SW3.7 kmh SW 3.5 mph5.6 kmh 29.81 in1009.5 mb - 0.00 in0.0 mm 0.01 in0.3 mm
04:10 AM 53.2°F11.8°C 50.9°F10.5°C 92% 1.2 mph SSW1.9 kmh SSW 2.3 mph3.7 kmh 29.82 in1009.8 mb - 0.00 in0.0 mm 0.01 in0.3 mm
04:15 AM 53.4°F11.9°C 51.4°F10.8°C 93% 1.2 mph S1.9 kmh S 3.5 mph5.6 kmh 29.82 in1009.8 mb - 0.00 in0.0 mm 0.01 in0.3 mm
04:20 AM 53.5°F11.9°C 51.2°F10.7°C 92% 1.2 mph S1.9 kmh S 3.5 mph5.6 kmh 29.82 in1009.8 mb - 0.00 in0.0 mm 0.01 in0.3 mm
04:25 AM 53.4°F11.9°C 51.1°F10.6°C 92% 2.3 mph S3.7 kmh S 3.5 mph5.6 kmh 29.82 in1009.8 mb - 0.00 in0.0 mm 0.01 in0.3 mm
04:30 AM 52.9°F11.6°C 50.7°F10.4°C 92% 1.2 mph S1.9 kmh S 3.5 mph5.6 kmh 29.82 in1009.8 mb - 0.00 in0.0 mm 0.01 in0.3 mm
04:35 AM 52.7°F11.5°C 50.4°F10.2°C 92% 1.2 mph SSW1.9 kmh SSW 2.3 mph3.7 kmh 29.82 in1009.8 mb - 0.00 in0.0 mm 0.01 in0.3 mm
04:40 AM 52.8°F11.6°C 50.8°F10.4°C 93% 1.2 mph S1.9 kmh S 3.5 mph5.6 kmh 29.82 in1009.8 mb - 0.00 in0.0 mm 0.01 in0.3 mm
04:45 AM 53.1°F11.7°C 51.1°F10.6°C 93% 1.2 mph S1.9 kmh S 2.3 mph3.7 kmh 29.83 in1010.2 mb - 0.00 in0.0 mm 0.01 in0.3 mm
04:50 AM 53.1°F11.7°C 51.1°F10.6°C 93% 1.2 mph S1.9 kmh S 2.3 mph3.7 kmh 29.82 in1009.8 mb - 0.00 in0.0 mm 0.01 in0.3 mm
04:55 AM 52.9°F11.6°C 50.6°F10.3°C 92% 1.2 mph S1.9 kmh S 1.2 mph1.9 kmh 29.83 in1010.2 mb - 0.00 in0.0 mm 0.01 in0.3 mm
05:00 AM 52.9°F11.6°C 50.9°F10.5°C 93% 1.2 mph S1.9 kmh S 2.3 mph3.7 kmh 29.83 in1010.2 mb - 0.00 in0.0 mm 0.01 in0.3 mm
05:10 AM 52.9°F11.6°C 50.9°F10.5°C 93% 2.3 mph SSE3.7 kmh SSE 3.5 mph5.6 kmh 29.83 in1010.2 mb - 0.00 in0.0 mm 0.01 in0.3 mm
05:15 AM 52.9°F11.6°C 50.6°F10.3°C 92% 1.2 mph SSE1.9 kmh SSE 2.3 mph3.7 kmh 29.84 in1010.5 mb - 0.00 in0.0 mm 0.01 in0.3 mm
05:20 AM 52.9°F11.6°C 50.6°F10.3°C 92% 1.2 mph SSE1.9 kmh SSE 2.3 mph3.7 kmh 29.84 in1010.5 mb - 0.00 in0.0 mm 0.01 in0.3 mm
05:25 AM 53.0°F11.7°C 51.0°F10.6°C 93% 1.2 mph SSE1.9 kmh SSE 1.2 mph1.9 kmh 29.84 in1010.5 mb - 0.00 in0.0 mm 0.01 in0.3 mm
05:30 AM 53.1°F11.7°C 50.8°F10.4°C 92% 1.2 mph S1.9 kmh S 2.3 mph3.7 kmh 29.84 in1010.5 mb - 0.00 in0.0 mm 0.01 in0.3 mm
05:35 AM 53.2°F11.8°C 51.2°F10.7°C 93% 2.3 mph S3.7 kmh S 3.5 mph5.6 kmh 29.84 in1010.5 mb - 0.00 in0.0 mm 0.01 in0.3 mm
05:40 AM 53.8°F12.1°C 51.8°F11.0°C 93% 1.2 mph S1.9 kmh S 3.5 mph5.6 kmh 29.84 in1010.5 mb - 0.00 in0.0 mm 0.01 in0.3 mm
05:45 AM 54.2°F12.3°C 52.2°F11.2°C 93% 2.3 mph S3.7 kmh S 3.5 mph5.6 kmh 29.84 in1010.5 mb - 0.00 in0.0 mm 0.01 in0.3 mm
05:50 AM 54.6°F12.6°C 52.6°F11.4°C 93% 2.3 mph S3.7 kmh S 3.5 mph5.6 kmh 29.84 in1010.5 mb - 0.00 in0.0 mm 0.01 in0.3 mm
05:55 AM 55.2°F12.9°C 53.2°F11.8°C 93% 2.3 mph S3.7 kmh S 4.6 mph7.4 kmh 29.84 in1010.5 mb - 0.00 in0.0 mm 0.01 in0.3 mm
06:00 AM 55.6°F13.1°C 53.3°F11.8°C 92% 1.2 mph SSE1.9 kmh SSE 3.5 mph5.6 kmh 29.84 in1010.5 mb - 0.00 in0.0 mm 0.01 in0.3 mm
06:10 AM 56.0°F13.3°C 53.4°F11.9°C 91% 3.5 mph SE5.6 kmh SE 5.8 mph9.3 kmh 29.84 in1010.5 mb - 0.00 in0.0 mm 0.01 in0.3 mm
06:15 AM 56.1°F13.4°C 53.5°F11.9°C 91% 3.5 mph SSE5.6 kmh SSE 4.6 mph7.4 kmh 29.84 in1010.5 mb - 0.00 in0.0 mm 0.01 in0.3 mm
06:20 AM 56.4°F13.6°C 53.9°F12.2°C 91% 2.3 mph S3.7 kmh S 4.6 mph7.4 kmh 29.84 in1010.5 mb - 0.00 in0.0 mm 0.01 in0.3 mm
06:25 AM 56.9°F13.8°C 54.3°F12.4°C 91% 2.3 mph SSE3.7 kmh SSE 3.5 mph5.6 kmh 29.84 in1010.5 mb - 0.00 in0.0 mm 0.01 in0.3 mm
06:30 AM 57.0°F13.9°C 54.4°F12.4°C 91% 2.3 mph S3.7 kmh S 2.3 mph3.7 kmh 29.85 in1010.8 mb - 0.00 in0.0 mm 0.01 in0.3 mm
06:35 AM 57.3°F14.1°C 54.7°F12.6°C 91% 2.3 mph S3.7 kmh S 2.3 mph3.7 kmh 29.84 in1010.5 mb - 0.00 in0.0 mm 0.01 in0.3 mm
06:40 AM 57.8°F14.3°C 54.9°F12.7°C 90% 2.3 mph S3.7 kmh S 3.5 mph5.6 kmh 29.85 in1010.8 mb - 0.00 in0.0 mm 0.01 in0.3 mm
06:45 AM 58.1°F14.5°C 54.9°F12.7°C 89% 2.3 mph SSW3.7 kmh SSW 3.5 mph5.6 kmh 29.85 in1010.8 mb - 0.00 in0.0 mm 0.01 in0.3 mm
06:50 AM 58.6°F14.8°C 55.7°F13.2°C 90% 3.5 mph S5.6 kmh S 4.6 mph7.4 kmh 29.85 in1010.8 mb - 0.00 in0.0 mm 0.01 in0.3 mm
06:55 AM 59.2°F15.1°C 55.6°F13.1°C 88% 3.5 mph S5.6 kmh S 5.8 mph9.3 kmh 29.85 in1010.8 mb - 0.00 in0.0 mm 0.01 in0.3 mm
07:00 AM 59.5°F15.3°C 56.0°F13.3°C 88% 2.3 mph SSE3.7 kmh SSE 3.5 mph5.6 kmh 29.85 in1010.8 mb - 0.00 in0.0 mm 0.01 in0.3 mm
07:10 AM 60.1°F15.6°C 55.9°F13.3°C 86% 2.3 mph S3.7 kmh S 4.6 mph7.4 kmh 29.85 in1010.8 mb - 0.00 in0.0 mm 0.01 in0.3 mm
07:15 AM 60.2°F15.7°C 55.0°F12.8°C 83% 4.6 mph S7.4 kmh S 9.2 mph14.8 kmh 29.85 in1010.8 mb - 0.00 in0.0 mm 0.01 in0.3 mm
07:20 AM 60.5°F15.8°C 56.3°F13.5°C 86% 2.3 mph SSW3.7 kmh SSW 5.8 mph9.3 kmh 29.85 in1010.8 mb - 0.00 in0.0 mm 0.01 in0.3 mm
07:25 AM 60.9°F16.1°C 56.0°F13.3°C 84% 3.5 mph S5.6 kmh S 3.5 mph5.6 kmh 29.85 in1010.8 mb - 0.00 in0.0 mm 0.01 in0.3 mm
07:30 AM 61.0°F16.1°C 55.8°F13.2°C 83% 4.6 mph S7.4 kmh S 5.8 mph9.3 kmh 29.85 in1010.8 mb - 0.00 in0.0 mm 0.01 in0.3 mm
07:35 AM 61.4°F16.3°C 56.5°F13.6°C 84% 5.8 mph SSW9.3 kmh SSW 10.4 mph16.7 kmh 29.85 in1010.8 mb - 0.00 in0.0 mm 0.01 in0.3 mm
07:40 AM 61.5°F16.4°C 56.3°F13.5°C 83% 4.6 mph S7.4 kmh S 5.8 mph9.3 kmh 29.85 in1010.8 mb - 0.00 in0.0 mm 0.01 in0.3 mm
07:45 AM 61.8°F16.6°C 56.2°F13.4°C 82% 4.6 mph SSW7.4 kmh SSW 6.9 mph11.1 kmh 29.85 in1010.8 mb - 0.00 in0.0 mm 0.01 in0.3 mm
07:50 AM 62.2°F16.8°C 56.3°F13.5°C 81% 5.8 mph SSE9.3 kmh SSE 8.1 mph13.0 kmh 29.85 in1010.8 mb - 0.00 in0.0 mm 0.01 in0.3 mm
07:55 AM 62.2°F16.8°C 56.7°F13.7°C 82% 4.6 mph S7.4 kmh S 6.9 mph11.1 kmh 29.85 in1010.8 mb - 0.00 in0.0 mm 0.01 in0.3 mm
08:00 AM 62.6°F17.0°C 56.3°F13.5°C 80% 5.8 mph S9.3 kmh S 10.4 mph16.7 kmh 29.85 in1010.8 mb - 0.00 in0.0 mm 0.01 in0.3 mm
08:10 AM 63.0°F17.2°C 56.7°F13.7°C 80% 4.6 mph SSE7.4 kmh SSE 8.1 mph13.0 kmh 29.85 in1010.8 mb - 0.00 in0.0 mm 0.01 in0.3 mm
08:15 AM 63.4°F17.4°C 56.8°F13.8°C 79% 4.6 mph S7.4 kmh S 5.8 mph9.3 kmh 29.85 in1010.8 mb - 0.00 in0.0 mm 0.01 in0.3 mm
08:20 AM 63.7°F17.6°C 56.7°F13.7°C 78% 3.5 mph S5.6 kmh S 3.5 mph5.6 kmh 29.85 in1010.8 mb - 0.00 in0.0 mm 0.01 in0.3 mm
08:25 AM 64.0°F17.8°C 57.0°F13.9°C 78% 5.8 mph S9.3 kmh S 10.4 mph16.7 kmh 29.85 in1010.8 mb - 0.00 in0.0 mm 0.01 in0.3 mm
08:30 AM 63.9°F17.7°C 55.8°F13.2°C 75% 6.9 mph S11.1 kmh S 9.2 mph14.8 kmh 29.85 in1010.8 mb - 0.00 in0.0 mm 0.01 in0.3 mm
08:35 AM 64.4°F18.0°C 56.7°F13.7°C 76% 6.9 mph S11.1 kmh S 6.9 mph11.1 kmh 29.85 in1010.8 mb - 0.00 in0.0 mm 0.01 in0.3 mm
08:40 AM 64.5°F18.1°C 56.7°F13.7°C 76% 4.6 mph S7.4 kmh S 10.4 mph16.7 kmh 29.85 in1010.8 mb - 0.00 in0.0 mm 0.01 in0.3 mm
08:45 AM 64.7°F18.2°C 56.3°F13.5°C 74% 4.6 mph S7.4 kmh S 5.8 mph9.3 kmh 29.85 in1010.8 mb - 0.00 in0.0 mm 0.01 in0.3 mm
08:50 AM 65.4°F18.6°C 56.1°F13.4°C 72% 8.1 mph SSW13.0 kmh SSW 6.9 mph11.1 kmh 29.85 in1010.8 mb - 0.00 in0.0 mm 0.01 in0.3 mm
08:55 AM 65.3°F18.5°C 55.7°F13.2°C 71% 6.9 mph S11.1 kmh S 8.1 mph13.0 kmh 29.86 in1011.2 mb - 0.00 in0.0 mm 0.01 in0.3 mm
09:00 AM 65.6°F18.7°C 57.1°F13.9°C 74% 3.5 mph S5.6 kmh S 5.8 mph9.3 kmh 29.85 in1010.8 mb - 0.00 in0.0 mm 0.01 in0.3 mm
09:10 AM 66.1°F18.9°C 56.0°F13.3°C 70% 6.9 mph SW11.1 kmh SW 10.4 mph16.7 kmh 29.86 in1011.2 mb - 0.00 in0.0 mm 0.01 in0.3 mm
09:15 AM 65.5°F18.6°C 55.1°F12.8°C 69% 6.9 mph SSW11.1 kmh SSW 6.9 mph11.1 kmh 29.86 in1011.2 mb - 0.00 in0.0 mm 0.01 in0.3 mm
09:20 AM 66.4°F19.1°C 55.9°F13.3°C 69% 6.9 mph S11.1 kmh S 13.8 mph22.2 kmh 29.85 in1010.8 mb - 0.00 in0.0 mm 0.01 in0.3 mm
09:25 AM 66.2°F19.0°C 55.7°F13.2°C 69% 8.1 mph S13.0 kmh S 12.7 mph20.4 kmh 29.85 in1010.8 mb - 0.00 in0.0 mm 0.01 in0.3 mm
09:30 AM 65.7°F18.7°C 54.4°F12.4°C 67% 9.2 mph SSW14.8 kmh SSW 12.7 mph20.4 kmh 29.85 in1010.8 mb - 0.00 in0.0 mm 0.01 in0.3 mm
09:35 AM 66.1°F18.9°C 56.8°F13.8°C 72% 4.6 mph SSW7.4 kmh SSW 8.1 mph13.0 kmh 29.85 in1010.8 mb - 0.00 in0.0 mm 0.01 in0.3 mm
09:40 AM 67.0°F19.4°C 56.8°F13.8°C 70% 4.6 mph S7.4 kmh S 10.4 mph16.7 kmh 29.85 in1010.8 mb - 0.00 in0.0 mm 0.01 in0.3 mm
09:45 AM 67.7°F19.8°C 56.8°F13.8°C 68% 5.8 mph S9.3 kmh S 10.4 mph16.7 kmh 29.85 in1010.8 mb - 0.00 in0.0 mm 0.01 in0.3 mm
09:50 AM 67.2°F19.6°C 55.4°F13.0°C 66% 6.9 mph S11.1 kmh S 10.4 mph16.7 kmh 29.85 in1010.8 mb - 0.00 in0.0 mm 0.01 in0.3 mm
09:55 AM 67.0°F19.4°C 55.7°F13.2°C 67% 5.8 mph S9.3 kmh S 9.2 mph14.8 kmh 29.85 in1010.8 mb - 0.00 in0.0 mm 0.01 in0.3 mm
10:00 AM 67.6°F19.8°C 57.0°F13.9°C 69% 5.8 mph S9.3 kmh S 11.5 mph18.5 kmh 29.85 in1010.8 mb - 0.00 in0.0 mm 0.01 in0.3 mm
10:10 AM 68.0°F20.0°C 56.2°F13.4°C 66% 8.1 mph S13.0 kmh S 17.3 mph27.8 kmh 29.85 in1010.8 mb - 0.00 in0.0 mm 0.01 in0.3 mm
10:15 AM 68.2°F20.1°C 55.9°F13.3°C 65% 5.8 mph S9.3 kmh S 10.4 mph16.7 kmh 29.86 in1011.2 mb - 0.00 in0.0 mm 0.01 in0.3 mm
10:20 AM 68.2°F20.1°C 55.1°F12.8°C 63% 9.2 mph S14.8 kmh S 17.3 mph27.8 kmh 29.85 in1010.8 mb - 0.00 in0.0 mm 0.01 in0.3 mm
10:25 AM 68.4°F20.2°C 54.9°F12.7°C 62% 8.1 mph S13.0 kmh S 12.7 mph20.4 kmh 29.85 in1010.8 mb - 0.00 in0.0 mm 0.01 in0.3 mm
10:30 AM 68.8°F20.4°C 55.7°F13.2°C 63% 6.9 mph S11.1 kmh S 11.5 mph18.5 kmh 29.85 in1010.8 mb - 0.00 in0.0 mm 0.01 in0.3 mm
10:35 AM 69.6°F20.9°C 56.0°F13.3°C 62% 9.2 mph SSE14.8 kmh SSE 17.3 mph27.8 kmh 29.85 in1010.8 mb - 0.00 in0.0 mm 0.01 in0.3 mm
10:40 AM 69.3°F20.7°C 54.4°F12.4°C 59% 9.2 mph SSE14.8 kmh SSE 12.7 mph20.4 kmh 29.85 in1010.8 mb - 0.00 in0.0 mm 0.01 in0.3 mm
10:45 AM 69.6°F20.9°C 54.6°F12.6°C 59% 10.4 mph S16.7 kmh S 16.1 mph25.9 kmh 29.85 in1010.8 mb - 0.00 in0.0 mm 0.01 in0.3 mm
10:50 AM 69.4°F20.8°C 54.9°F12.7°C 60% 9.2 mph S14.8 kmh S 19.6 mph31.5 kmh 29.85 in1010.8 mb - 0.00 in0.0 mm 0.01 in0.3 mm
10:55 AM 70.1°F21.2°C 55.6°F13.1°C 60% 9.2 mph S14.8 kmh S 15.0 mph24.1 kmh 29.86 in1011.2 mb - 0.00 in0.0 mm 0.01 in0.3 mm
11:00 AM 69.5°F20.8°C 55.0°F12.8°C 60% 9.2 mph SSE14.8 kmh SSE 11.5 mph18.5 kmh 29.85 in1010.8 mb - 0.00 in0.0 mm 0.01 in0.3 mm
11:10 AM 69.6°F20.9°C 54.7°F12.6°C 59% 9.2 mph S14.8 kmh S 12.7 mph20.4 kmh 29.86 in1011.2 mb - 0.00 in0.0 mm 0.01 in0.3 mm
11:15 AM 69.5°F20.8°C 54.0°F12.2°C 58% 11.5 mph SSW18.5 kmh SSW 16.1 mph25.9 kmh 29.85 in1010.8 mb - 0.00 in0.0 mm 0.01 in0.3 mm
11:20 AM 70.2°F21.2°C 54.2°F12.3°C 57% 8.1 mph SSE13.0 kmh SSE 13.8 mph22.2 kmh 29.85 in1010.8 mb - 0.00 in0.0 mm 0.01 in0.3 mm
11:25 AM 70.3°F21.3°C 54.3°F12.4°C 57% 11.5 mph SSW18.5 kmh SSW 19.6 mph31.5 kmh 29.86 in1011.2 mb - 0.00 in0.0 mm 0.01 in0.3 mm
11:30 AM 70.7°F21.5°C 53.7°F12.1°C 55% 9.2 mph S14.8 kmh S 15.0 mph24.1 kmh 29.86 in1011.2 mb - 0.00 in0.0 mm 0.01 in0.3 mm
11:35 AM 69.8°F21.0°C 52.9°F11.6°C 55% 11.5 mph S18.5 kmh S 16.1 mph25.9 kmh 29.85 in1010.8 mb - 0.00 in0.0 mm 0.01 in0.3 mm
11:40 AM 70.0°F21.1°C 53.6°F12.0°C 56% 10.4 mph SSE16.7 kmh SSE 15.0 mph24.1 kmh 29.85 in1010.8 mb - 0.00 in0.0 mm 0.01 in0.3 mm
11:45 AM 70.3°F21.3°C 53.8°F12.1°C 56% 10.4 mph S16.7 kmh S 11.5 mph18.5 kmh 29.86 in1011.2 mb - 0.00 in0.0 mm 0.01 in0.3 mm
11:50 AM 69.8°F21.0°C 50.3°F10.2°C 50% 10.4 mph S16.7 kmh S 13.8 mph22.2 kmh 29.86 in1011.2 mb - 0.00 in0.0 mm 0.01 in0.3 mm
11:55 AM 69.4°F20.8°C 52.5°F11.4°C 55% 11.5 mph SSW18.5 kmh SSW 12.7 mph20.4 kmh 29.86 in1011.2 mb - 0.00 in0.0 mm 0.01 in0.3 mm
12:00 PM 69.9°F21.1°C 50.9°F10.5°C 51% 10.4 mph S16.7 kmh S 16.1 mph25.9 kmh 29.86 in1011.2 mb - 0.00 in0.0 mm 0.01 in0.3 mm
12:10 PM 69.4°F20.8°C 52.1°F11.2°C 54% 9.2 mph SSW14.8 kmh SSW 16.1 mph25.9 kmh 29.87 in1011.5 mb - 0.00 in0.0 mm 0.01 in0.3 mm
12:15 PM 68.0°F20.0°C 51.2°F10.7°C 55% 9.2 mph SSW14.8 kmh SSW 15.0 mph24.1 kmh 29.87 in1011.5 mb - 0.00 in0.0 mm 0.01 in0.3 mm
12:20 PM 68.4°F20.2°C 52.1°F11.2°C 56% 11.5 mph SSW18.5 kmh SSW 13.8 mph22.2 kmh 29.87 in1011.5 mb - 0.00 in0.0 mm 0.01 in0.3 mm
12:25 PM 70.0°F21.1°C 52.6°F11.4°C 54% 12.7 mph SW20.4 kmh SW 16.1 mph25.9 kmh 29.87 in1011.5 mb - 0.00 in0.0 mm 0.01 in0.3 mm
12:30 PM 70.8°F21.6°C 51.8°F11.0°C 51% 9.2 mph S14.8 kmh S 12.7 mph20.4 kmh 29.87 in1011.5 mb - 0.00 in0.0 mm 0.01 in0.3 mm
12:35 PM 68.6°F20.3°C 51.3°F10.7°C 54% 6.9 mph S11.1 kmh S 9.2 mph14.8 kmh 29.87 in1011.5 mb - 0.00 in0.0 mm 0.01 in0.3 mm
12:40 PM 69.4°F20.8°C 53.5°F11.9°C 57% 9.2 mph SSW14.8 kmh SSW 15.0 mph24.1 kmh 29.87 in1011.5 mb - 0.00 in0.0 mm 0.01 in0.3 mm
12:45 PM 68.9°F20.5°C 51.5°F10.8°C 54% 10.4 mph S16.7 kmh S 15.0 mph24.1 kmh 29.87 in1011.5 mb - 0.00 in0.0 mm 0.01 in0.3 mm
12:50 PM 69.8°F21.0°C 53.9°F12.2°C 57% 9.2 mph SW14.8 kmh SW 12.7 mph20.4 kmh 29.87 in1011.5 mb - 0.00 in0.0 mm 0.01 in0.3 mm
12:55 PM 69.0°F20.6°C 52.1°F11.2°C 55% 6.9 mph SSW11.1 kmh SSW 8.1 mph13.0 kmh 29.87 in1011.5 mb - 0.00 in0.0 mm 0.01 in0.3 mm
01:00 PM 68.7°F20.4°C 52.9°F11.6°C 57% 10.4 mph SSW16.7 kmh SSW 11.5 mph18.5 kmh 29.87 in1011.5 mb - 0.00 in0.0 mm 0.01 in0.3 mm
01:10 PM 67.6°F19.8°C 51.3°F10.7°C 56% 8.1 mph S13.0 kmh S 11.5 mph18.5 kmh 29.88 in1011.9 mb - 0.00 in0.0 mm 0.01 in0.3 mm
01:15 PM 69.3°F20.7°C 52.9°F11.6°C 56% 11.5 mph SW18.5 kmh SW 13.8 mph22.2 kmh 29.88 in1011.9 mb - 0.00 in0.0 mm 0.01 in0.3 mm
01:20 PM 68.3°F20.2°C 53.4°F11.9°C 59% 6.9 mph SW11.1 kmh SW 11.5 mph18.5 kmh 29.88 in1011.9 mb - 0.00 in0.0 mm 0.01 in0.3 mm
01:25 PM 67.7°F19.8°C 52.8°F11.6°C 59% 5.8 mph SSW9.3 kmh SSW 9.2 mph14.8 kmh 29.88 in1011.9 mb - 0.00 in0.0 mm 0.01 in0.3 mm
01:30 PM 68.5°F20.3°C 52.7°F11.5°C 57% 6.9 mph SSW11.1 kmh SSW 11.5 mph18.5 kmh 29.88 in1011.9 mb - 0.00 in0.0 mm 0.01 in0.3 mm
01:35 PM 67.6°F19.8°C 52.3°F11.3°C 58% 6.9 mph SSW11.1 kmh SSW 8.1 mph13.0 kmh 29.88 in1011.9 mb - 0.00 in0.0 mm 0.01 in0.3 mm
01:40 PM 68.3°F20.2°C 53.5°F11.9°C 59% 6.9 mph SSW11.1 kmh SSW 10.4 mph16.7 kmh 29.88 in1011.9 mb - 0.00 in0.0 mm 0.01 in0.3 mm
01:45 PM 68.0°F20.0°C 52.7°F11.5°C 58% 8.1 mph SW13.0 kmh SW 10.4 mph16.7 kmh 29.88 in1011.9 mb - 0.00 in0.0 mm 0.01 in0.3 mm
01:50 PM 68.1°F20.1°C 52.8°F11.6°C 58% 6.9 mph SW11.1 kmh SW 11.5 mph18.5 kmh 29.88 in1011.9 mb - 0.00 in0.0 mm 0.01 in0.3 mm
01:55 PM 67.8°F19.9°C 52.5°F11.4°C 58% 5.8 mph SW9.3 kmh SW 5.8 mph9.3 kmh 29.88 in1011.9 mb - 0.00 in0.0 mm 0.01 in0.3 mm
02:00 PM 67.4°F19.7°C 52.6°F11.4°C 59% 4.6 mph S7.4 kmh S 9.2 mph14.8 kmh 29.88 in1011.9 mb - 0.00 in0.0 mm 0.01 in0.3 mm
02:10 PM 68.7°F20.4°C 51.4°F10.8°C 54% 6.9 mph SSE11.1 kmh SSE 9.2 mph14.8 kmh 29.88 in1011.9 mb - 0.00 in0.0 mm 0.01 in0.3 mm
02:15 PM 67.9°F19.9°C 51.6°F10.9°C 56% 6.9 mph SSW11.1 kmh SSW 10.4 mph16.7 kmh 29.88 in1011.9 mb - 0.00 in0.0 mm 0.01 in0.3 mm
02:20 PM 66.9°F19.4°C 52.6°F11.4°C 60% 5.8 mph SW9.3 kmh SW 11.5 mph18.5 kmh 29.89 in1012.2 mb - 0.00 in0.0 mm 0.01 in0.3 mm
02:25 PM 66.7°F19.3°C 53.2°F11.8°C 62% 8.1 mph SW13.0 kmh SW 11.5 mph18.5 kmh 29.89 in1012.2 mb - 0.00 in0.0 mm 0.01 in0.3 mm
02:30 PM 69.1°F20.6°C 56.0°F13.3°C 63% 11.5 mph WSW18.5 kmh WSW 19.6 mph31.5 kmh 29.89 in1012.2 mb - 0.00 in0.0 mm 0.01 in0.3 mm
02:35 PM 69.6°F20.9°C 55.5°F13.1°C 61% 10.4 mph WSW16.7 kmh WSW 13.8 mph22.2 kmh 29.89 in1012.2 mb - 0.00 in0.0 mm 0.01 in0.3 mm
02:40 PM 69.3°F20.7°C 55.3°F12.9°C 61% 8.1 mph SW13.0 kmh SW 10.4 mph16.7 kmh 29.89 in1012.2 mb - 0.00 in0.0 mm 0.01 in0.3 mm
02:45 PM 69.9°F21.1°C 55.4°F13.0°C 60% 12.7 mph SW20.4 kmh SW 15.0 mph24.1 kmh 29.89 in1012.2 mb - 0.00 in0.0 mm 0.01 in0.3 mm
02:50 PM 68.1°F20.1°C 52.3°F11.3°C 57% 9.2 mph WSW14.8 kmh WSW 11.5 mph18.5 kmh 29.89 in1012.2 mb - 0.00 in0.0 mm 0.01 in0.3 mm
02:55 PM 69.2°F20.7°C 54.2°F12.3°C 59% 5.8 mph SW9.3 kmh SW 6.9 mph11.1 kmh 29.89 in1012.2 mb - 0.00 in0.0 mm 0.01 in0.3 mm
03:00 PM 68.2°F20.1°C 53.3°F11.8°C 59% 8.1 mph SW13.0 kmh SW 10.4 mph16.7 kmh 29.89 in1012.2 mb - 0.00 in0.0 mm 0.01 in0.3 mm
03:10 PM 66.8°F19.3°C 52.0°F11.1°C 59% 5.8 mph SSW9.3 kmh SSW 8.1 mph13.0 kmh 29.89 in1012.2 mb - 0.00 in0.0 mm 0.01 in0.3 mm
03:15 PM 69.6°F20.9°C 56.0°F13.3°C 62% 6.9 mph SSW11.1 kmh SSW 11.5 mph18.5 kmh 29.88 in1011.9 mb - 0.00 in0.0 mm 0.01 in0.3 mm
03:20 PM 71.3°F21.8°C 54.8°F12.7°C 56% 9.2 mph SW14.8 kmh SW 11.5 mph18.5 kmh 29.89 in1012.2 mb - 0.00 in0.0 mm 0.01 in0.3 mm
03:25 PM 70.7°F21.5°C 54.7°F12.6°C 57% 6.9 mph SW11.1 kmh SW 10.4 mph16.7 kmh 29.89 in1012.2 mb - 0.00 in0.0 mm 0.01 in0.3 mm
03:30 PM 69.5°F20.8°C 53.2°F11.8°C 56% 8.1 mph SW13.0 kmh SW 11.5 mph18.5 kmh 29.89 in1012.2 mb - 0.00 in0.0 mm 0.01 in0.3 mm
03:35 PM 70.2°F21.2°C 52.8°F11.6°C 54% 13.8 mph SW22.2 kmh SW 17.3 mph27.8 kmh 29.89 in1012.2 mb - 0.00 in0.0 mm 0.01 in0.3 mm
03:40 PM 70.5°F21.4°C 52.6°F11.4°C 53% 11.5 mph SW18.5 kmh SW 13.8 mph22.2 kmh 29.89 in1012.2 mb - 0.00 in0.0 mm 0.01 in0.3 mm
03:45 PM 70.4°F21.3°C 51.4°F10.8°C 51% 10.4 mph SSW16.7 kmh SSW 11.5 mph18.5 kmh 29.89 in1012.2 mb - 0.00 in0.0 mm 0.01 in0.3 mm
03:50 PM 69.5°F20.8°C 53.6°F12.0°C 57% 9.2 mph SSW14.8 kmh SSW 12.7 mph20.4 kmh 29.89 in1012.2 mb - 0.00 in0.0 mm 0.01 in0.3 mm
03:55 PM 68.9°F20.5°C 51.6°F10.9°C 54% 10.4 mph SW16.7 kmh SW 13.8 mph22.2 kmh 29.89 in1012.2 mb - 0.00 in0.0 mm 0.01 in0.3 mm
04:00 PM 68.9°F20.5°C 51.5°F10.8°C 54% 10.4 mph SW16.7 kmh SW 12.7 mph20.4 kmh 29.89 in1012.2 mb - 0.00 in0.0 mm 0.01 in0.3 mm
04:10 PM 67.4°F19.7°C 51.2°F10.7°C 56% 4.6 mph SW7.4 kmh SW 8.1 mph13.0 kmh 29.89 in1012.2 mb - 0.00 in0.0 mm 0.01 in0.3 mm
04:15 PM 67.3°F19.6°C 52.5°F11.4°C 59% 5.8 mph SW9.3 kmh SW 8.1 mph13.0 kmh 29.89 in1012.2 mb - 0.00 in0.0 mm 0.01 in0.3 mm
04:20 PM 67.5°F19.7°C 50.8°F10.4°C 55% 5.8 mph SSW9.3 kmh SSW 5.8 mph9.3 kmh 29.89 in1012.2 mb - 0.00 in0.0 mm 0.01 in0.3 mm
04:25 PM 67.7°F19.8°C 51.5°F10.8°C 56% 6.9 mph SSW11.1 kmh SSW 11.5 mph18.5 kmh 29.89 in1012.2 mb - 0.00 in0.0 mm 0.01 in0.3 mm
04:30 PM 67.8°F19.9°C 52.1°F11.2°C 57% 8.1 mph WSW13.0 kmh WSW 10.4 mph16.7 kmh 29.89 in1012.2 mb - 0.00 in0.0 mm 0.01 in0.3 mm
04:35 PM 67.6°F19.8°C 50.9°F10.5°C 55% 8.1 mph WSW13.0 kmh WSW 11.5 mph18.5 kmh 29.89 in1012.2 mb - 0.00 in0.0 mm 0.01 in0.3 mm
04:40 PM 67.4°F19.7°C 52.5°F11.4°C 59% 5.8 mph SW9.3 kmh SW 6.9 mph11.1 kmh 29.89 in1012.2 mb - 0.00 in0.0 mm 0.01 in0.3 mm
04:45 PM 67.1°F19.5°C 52.3°F11.3°C 59% 5.8 mph WSW9.3 kmh WSW 10.4 mph16.7 kmh 29.89 in1012.2 mb - 0.00 in0.0 mm 0.01 in0.3 mm
04:50 PM 68.4°F20.2°C 53.1°F11.7°C 58% 4.6 mph SW7.4 kmh SW 8.1 mph13.0 kmh 29.89 in1012.2 mb - 0.00 in0.0 mm 0.01 in0.3 mm
04:55 PM 69.9°F21.1°C 53.5°F11.9°C 56% 6.9 mph SW11.1 kmh SW 10.4 mph16.7 kmh 29.89 in1012.2 mb - 0.00 in0.0 mm 0.01 in0.3 mm
05:00 PM 69.5°F20.8°C 52.7°F11.5°C 55% 6.9 mph SW11.1 kmh SW 11.5 mph18.5 kmh 29.89 in1012.2 mb - 0.00 in0.0 mm 0.01 in0.3 mm
05:10 PM 68.9°F20.5°C 53.0°F11.7°C 57% 6.9 mph SW11.1 kmh SW 9.2 mph14.8 kmh 29.89 in1012.2 mb - 0.00 in0.0 mm 0.01 in0.3 mm
05:15 PM 68.9°F20.5°C 52.0°F11.1°C 55% 4.6 mph SW7.4 kmh SW 5.8 mph9.3 kmh 29.89 in1012.2 mb - 0.00 in0.0 mm 0.01 in0.3 mm
05:20 PM 69.2°F20.7°C 52.9°F11.6°C 56% 4.6 mph SW7.4 kmh SW 9.2 mph14.8 kmh 29.89 in1012.2 mb - 0.00 in0.0 mm 0.01 in0.3 mm
05:25 PM 70.0°F21.1°C 55.0°F12.8°C 59% 4.6 mph SSW7.4 kmh SSW 9.2 mph14.8 kmh 29.89 in1012.2 mb - 0.00 in0.0 mm 0.01 in0.3 mm
05:30 PM 69.7°F20.9°C 52.3°F11.3°C 54% 5.8 mph S9.3 kmh S 9.2 mph14.8 kmh 29.89 in1012.2 mb - 0.00 in0.0 mm 0.01 in0.3 mm
05:35 PM 69.8°F21.0°C 52.4°F11.3°C 54% 4.6 mph SSW7.4 kmh SSW 5.8 mph9.3 kmh 29.89 in1012.2 mb - 0.00 in0.0 mm 0.01 in0.3 mm
05:40 PM 69.6°F20.9°C 52.7°F11.5°C 55% 4.6 mph SSW7.4 kmh SSW 5.8 mph9.3 kmh 29.89 in1012.2 mb - 0.00 in0.0 mm 0.01 in0.3 mm
05:45 PM 69.5°F20.8°C 52.1°F11.2°C 54% 4.6 mph SW7.4 kmh SW 10.4 mph16.7 kmh 29.89 in1012.2 mb - 0.00 in0.0 mm 0.01 in0.3 mm
05:50 PM 69.4°F20.8°C 51.5°F10.8°C 53% 6.9 mph SW11.1 kmh SW 11.5 mph18.5 kmh 29.89 in1012.2 mb - 0.00 in0.0 mm 0.01 in0.3 mm
05:55 PM 69.3°F20.7°C 51.4°F10.8°C 53% 5.8 mph SW9.3 kmh SW 10.4 mph16.7 kmh 29.89 in1012.2 mb - 0.00 in0.0 mm 0.01 in0.3 mm
06:00 PM 69.1°F20.6°C 51.7°F10.9°C 54% 4.6 mph SW7.4 kmh SW 6.9 mph11.1 kmh 29.89 in1012.2 mb - 0.00 in0.0 mm 0.01 in0.3 mm
06:10 PM 68.8°F20.4°C 51.0°F10.6°C 53% 5.8 mph SW9.3 kmh SW 10.4 mph16.7 kmh 29.89 in1012.2 mb - 0.00 in0.0 mm 0.01 in0.3 mm
06:15 PM 68.8°F20.4°C 51.5°F10.8°C 54% 5.8 mph SW9.3 kmh SW 8.1 mph13.0 kmh 29.89 in1012.2 mb - 0.00 in0.0 mm 0.01 in0.3 mm
06:20 PM 68.8°F20.4°C 51.0°F10.6°C 53% 4.6 mph WSW7.4 kmh WSW 5.8 mph9.3 kmh 29.89 in1012.2 mb - 0.00 in0.0 mm 0.01 in0.3 mm
06:25 PM 68.9°F20.5°C 51.0°F10.6°C 53% 3.5 mph SW5.6 kmh SW 4.6 mph7.4 kmh 29.89 in1012.2 mb - 0.00 in0.0 mm 0.01 in0.3 mm
06:30 PM 69.0°F20.6°C 52.6°F11.4°C 56% 3.5 mph SW5.6 kmh SW 5.8 mph9.3 kmh 29.89 in1012.2 mb - 0.00 in0.0 mm 0.01 in0.3 mm
06:35 PM 69.1°F20.6°C 52.7°F11.5°C 56% 3.5 mph SW5.6 kmh SW 5.8 mph9.3 kmh 29.89 in1012.2 mb - 0.00 in0.0 mm 0.01 in0.3 mm
06:40 PM 68.5°F20.3°C 51.2°F10.7°C 54% 4.6 mph SW7.4 kmh SW 5.8 mph9.3 kmh 29.89 in1012.2 mb - 0.00 in0.0 mm 0.01 in0.3 mm
06:45 PM 68.6°F20.3°C 52.3°F11.3°C 56% 2.3 mph SSW3.7 kmh SSW 3.5 mph5.6 kmh 29.89 in1012.2 mb - 0.00 in0.0 mm 0.01 in0.3 mm
06:50 PM 68.7°F20.4°C 52.4°F11.3°C 56% 2.3 mph SSW3.7 kmh SSW 3.5 mph5.6 kmh 29.89 in1012.2 mb - 0.00 in0.0 mm 0.01 in0.3 mm
06:55 PM 68.8°F20.4°C 51.5°F10.8°C 54% 2.3 mph S3.7 kmh S 3.5 mph5.6 kmh 29.89 in1012.2 mb - 0.00 in0.0 mm 0.01 in0.3 mm
07:00 PM 68.7°F20.4°C 52.9°F11.6°C 57% 2.3 mph SSW3.7 kmh SSW 3.5 mph5.6 kmh 29.89 in1012.2 mb - 0.00 in0.0 mm 0.01 in0.3 mm
07:10 PM 68.6°F20.3°C 53.7°F12.1°C 59% 1.2 mph SSW1.9 kmh SSW 2.3 mph3.7 kmh 29.89 in1012.2 mb - 0.00 in0.0 mm 0.01 in0.3 mm
07:15 PM 68.5°F20.3°C 53.6°F12.0°C 59% 1.2 mph SSW1.9 kmh SSW 1.2 mph1.9 kmh 29.89 in1012.2 mb - 0.00 in0.0 mm 0.01 in0.3 mm
07:20 PM 68.3°F20.2°C 52.0°F11.1°C 56% 1.2 mph SSW1.9 kmh SSW 3.5 mph5.6 kmh 29.89 in1012.2 mb - 0.00 in0.0 mm 0.01 in0.3 mm
07:25 PM 68.2°F20.1°C 52.8°F11.6°C 58% 1.2 mph SSW1.9 kmh SSW 2.3 mph3.7 kmh 29.89 in1012.2 mb - 0.00 in0.0 mm 0.01 in0.3 mm
07:30 PM 68.0°F20.0°C 53.6°F12.0°C 60% 1.2 mph SSW1.9 kmh SSW 3.5 mph5.6 kmh 29.90 in1012.5 mb - 0.00 in0.0 mm 0.01 in0.3 mm
07:35 PM 67.7°F19.8°C 53.3°F11.8°C 60% 2.3 mph SE3.7 kmh SE 3.5 mph5.6 kmh 29.89 in1012.2 mb - 0.00 in0.0 mm 0.01 in0.3 mm
07:40 PM 67.5°F19.7°C 53.6°F12.0°C 61% 1.2 mph SE1.9 kmh SE 2.3 mph3.7 kmh 29.89 in1012.2 mb - 0.00 in0.0 mm 0.01 in0.3 mm
07:45 PM 67.4°F19.7°C 53.9°F12.2°C 62% 1.2 mph SE1.9 kmh SE 1.2 mph1.9 kmh 29.90 in1012.5 mb - 0.00 in0.0 mm 0.01 in0.3 mm
07:50 PM 67.2°F19.6°C 54.2°F12.3°C 63% 1.2 mph SE1.9 kmh SE 2.3 mph3.7 kmh 29.90 in1012.5 mb - 0.00 in0.0 mm 0.01 in0.3 mm
07:55 PM 66.9°F19.4°C 54.3°F12.4°C 64% 1.2 mph SE1.9 kmh SE 2.3 mph3.7 kmh 29.90 in1012.5 mb - 0.00 in0.0 mm 0.01 in0.3 mm
08:00 PM 66.6°F19.2°C 54.0°F12.2°C 64% Calm Calm 1.2 mph1.9 kmh 29.90 in1012.5 mb - 0.00 in0.0 mm 0.01 in0.3 mm
08:10 PM 65.4°F18.6°C 54.5°F12.5°C 68% 1.2 mph SE1.9 kmh SE 1.2 mph1.9 kmh 29.90 in1012.5 mb - 0.00 in0.0 mm 0.01 in0.3 mm
08:15 PM 65.2°F18.4°C 54.0°F12.2°C 67% 2.3 mph SE3.7 kmh SE 2.3 mph3.7 kmh 29.91 in1012.9 mb - 0.00 in0.0 mm 0.01 in0.3 mm
08:20 PM 65.5°F18.6°C 53.8°F12.1°C 66% 1.2 mph SE1.9 kmh SE 3.5 mph5.6 kmh 29.91 in1012.9 mb - 0.00 in0.0 mm 0.01 in0.3 mm
08:25 PM 65.3°F18.5°C 54.1°F12.3°C 67% 2.3 mph SE3.7 kmh SE 3.5 mph5.6 kmh 29.91 in1012.9 mb - 0.00 in0.0 mm 0.01 in0.3 mm
08:30 PM 65.0°F18.3°C 54.2°F12.3°C 68% 1.2 mph SE1.9 kmh SE 2.3 mph3.7 kmh 29.91 in1012.9 mb - 0.00 in0.0 mm 0.01 in0.3 mm
08:35 PM 64.5°F18.1°C 54.5°F12.5°C 70% 1.2 mph SE1.9 kmh SE 2.3 mph3.7 kmh 29.91 in1012.9 mb - 0.00 in0.0 mm 0.01 in0.3 mm
08:40 PM 64.0°F17.8°C 54.4°F12.4°C 71% 1.2 mph SE1.9 kmh SE 3.5 mph5.6 kmh 29.91 in1012.9 mb - 0.00 in0.0 mm 0.01 in0.3 mm
08:45 PM 63.7°F17.6°C 54.1°F12.3°C 71% 4.6 mph SE7.4 kmh SE 8.1 mph13.0 kmh 29.92 in1013.2 mb - 0.00 in0.0 mm 0.01 in0.3 mm
08:50 PM 63.1°F17.3°C 53.9°F12.2°C 72% 3.5 mph SE5.6 kmh SE 3.5 mph5.6 kmh 29.92 in1013.2 mb - 0.00 in0.0 mm 0.01 in0.3 mm
08:55 PM 62.4°F16.9°C 54.0°F12.2°C 74% 3.5 mph SE5.6 kmh SE 4.6 mph7.4 kmh 29.92 in1013.2 mb - 0.00 in0.0 mm 0.01 in0.3 mm
09:00 PM 62.1°F16.7°C 54.0°F12.2°C 75% 3.5 mph SE5.6 kmh SE 4.6 mph7.4 kmh 29.92 in1013.2 mb - 0.00 in0.0 mm 0.01 in0.3 mm
09:10 PM 61.8°F16.6°C 54.1°F12.3°C 76% 2.3 mph ESE3.7 kmh ESE 3.5 mph5.6 kmh 29.91 in1012.9 mb - 0.00 in0.0 mm 0.01 in0.3 mm
09:15 PM 61.5°F16.4°C 54.2°F12.3°C 77% 1.2 mph ESE1.9 kmh ESE 3.5 mph5.6 kmh 29.92 in1013.2 mb - 0.00 in0.0 mm 0.01 in0.3 mm
09:20 PM 61.4°F16.3°C 54.1°F12.3°C 77% 1.2 mph ESE1.9 kmh ESE 2.3 mph3.7 kmh 29.92 in1013.2 mb - 0.00 in0.0 mm 0.01 in0.3 mm
09:25 PM 61.2°F16.2°C 53.9°F12.2°C 77% 1.2 mph ESE1.9 kmh ESE 3.5 mph5.6 kmh 29.92 in1013.2 mb - 0.00 in0.0 mm 0.01 in0.3 mm
09:30 PM 61.0°F16.1°C 54.1°F12.3°C 78% 1.2 mph SE1.9 kmh SE 2.3 mph3.7 kmh 29.92 in1013.2 mb - 0.00 in0.0 mm 0.01 in0.3 mm
09:35 PM 60.9°F16.1°C 54.0°F12.2°C 78% 1.2 mph SE1.9 kmh SE 2.3 mph3.7 kmh 29.92 in1013.2 mb - 0.00 in0.0 mm 0.01 in0.3 mm
09:40 PM 60.7°F15.9°C 53.8°F12.1°C 78% 1.2 mph E1.9 kmh E 2.3 mph3.7 kmh 29.92 in1013.2 mb - 0.00 in0.0 mm 0.01 in0.3 mm
09:45 PM 60.7°F15.9°C 53.8°F12.1°C 78% 1.2 mph E1.9 kmh E 3.5 mph5.6 kmh 29.92 in1013.2 mb - 0.00 in0.0 mm 0.01 in0.3 mm
09:50 PM 60.5°F15.8°C 53.6°F12.0°C 78% 3.5 mph SE5.6 kmh SE 4.6 mph7.4 kmh 29.92 in1013.2 mb - 0.00 in0.0 mm 0.01 in0.3 mm
09:55 PM 60.4°F15.8°C 53.5°F11.9°C 78% 2.3 mph ESE3.7 kmh ESE 3.5 mph5.6 kmh 29.92 in1013.2 mb - 0.00 in0.0 mm 0.01 in0.3 mm
10:00 PM 60.4°F15.8°C 53.6°F12.0°C 78% 1.2 mph ESE1.9 kmh ESE 3.5 mph5.6 kmh 29.92 in1013.2 mb - 0.00 in0.0 mm 0.01 in0.3 mm
10:10 PM 60.3°F15.7°C 53.4°F11.9°C 78% 2.3 mph SE3.7 kmh SE 2.3 mph3.7 kmh 29.93 in1013.5 mb - 0.00 in0.0 mm 0.01 in0.3 mm
10:15 PM 60.4°F15.8°C 53.5°F11.9°C 78% 2.3 mph SE3.7 kmh SE 4.6 mph7.4 kmh 29.93 in1013.5 mb - 0.00 in0.0 mm 0.01 in0.3 mm
10:20 PM 60.5°F15.8°C 54.0°F12.2°C 79% 2.3 mph ESE3.7 kmh ESE 3.5 mph5.6 kmh 29.92 in1013.2 mb - 0.00 in0.0 mm 0.01 in0.3 mm
10:25 PM 59.7°F15.4°C 53.6°F12.0°C 80% 2.3 mph SW3.7 kmh SW 3.5 mph5.6 kmh 29.93 in1013.5 mb - 0.00 in0.0 mm 0.01 in0.3 mm
10:30 PM 58.9°F14.9°C 53.1°F11.7°C 81% 2.3 mph SSW3.7 kmh SSW 3.5 mph5.6 kmh 29.93 in1013.5 mb - 0.00 in0.0 mm 0.01 in0.3 mm
10:35 PM 59.2°F15.1°C 53.3°F11.8°C 81% 3.5 mph S5.6 kmh S 3.5 mph5.6 kmh 29.93 in1013.5 mb - 0.00 in0.0 mm 0.01 in0.3 mm
10:40 PM 58.8°F14.9°C 53.6°F12.0°C 83% 2.3 mph SW3.7 kmh SW 3.5 mph5.6 kmh 29.93 in1013.5 mb - 0.01 in0.3 mm 0.02 in0.5 mm
10:45 PM 58.4°F14.7°C 53.5°F11.9°C 84% 2.3 mph SE3.7 kmh SE 3.5 mph5.6 kmh 29.93 in1013.5 mb - 0.01 in0.3 mm 0.02 in0.5 mm
10:50 PM 58.7°F14.8°C 53.5°F11.9°C 83% 2.3 mph SE3.7 kmh SE 3.5 mph5.6 kmh 29.93 in1013.5 mb - 0.01 in0.3 mm 0.02 in0.5 mm
10:55 PM 58.6°F14.8°C 53.8°F12.1°C 84% 1.2 mph ESE1.9 kmh ESE 3.5 mph5.6 kmh 29.93 in1013.5 mb - 0.01 in0.3 mm 0.02 in0.5 mm
11:00 PM 58.5°F14.7°C 53.7°F12.1°C 84% 1.2 mph SE1.9 kmh SE 1.2 mph1.9 kmh 29.93 in1013.5 mb - 0.01 in0.3 mm 0.09 in2.3 mm
11:10 PM 58.5°F14.7°C 54.0°F12.2°C 85% 5.8 mph SSE9.3 kmh SSE 5.8 mph9.3 kmh 29.94 in1013.9 mb - 0.01 in0.3 mm 0.10 in2.5 mm
11:15 PM 58.9°F14.9°C 54.4°F12.4°C 85% 4.6 mph SE7.4 kmh SE 10.4 mph16.7 kmh 29.94 in1013.9 mb - 0.01 in0.3 mm 0.11 in2.8 mm
11:20 PM 58.9°F14.9°C 54.1°F12.3°C 84% 3.5 mph SSE5.6 kmh SSE 4.6 mph7.4 kmh 29.93 in1013.5 mb - 0.01 in0.3 mm 0.12 in3.0 mm
11:25 PM 59.1°F15.1°C 54.0°F12.2°C 83% 4.6 mph SSE7.4 kmh SSE 11.5 mph18.5 kmh 29.93 in1013.5 mb - 0.01 in0.3 mm 0.13 in3.3 mm
11:30 PM 59.5°F15.3°C 53.6°F12.0°C 81% 6.9 mph SSE11.1 kmh SSE 9.2 mph14.8 kmh 29.93 in1013.5 mb - 0.01 in0.3 mm 0.14 in3.6 mm
11:35 PM 59.5°F15.3°C 53.7°F12.1°C 81% 2.3 mph SE3.7 kmh SE 4.6 mph7.4 kmh 29.93 in1013.5 mb - 0.01 in0.3 mm 0.15 in3.8 mm
11:40 PM 59.2°F15.1°C 53.4°F11.9°C 81% 3.5 mph SE5.6 kmh SE 3.5 mph5.6 kmh 29.93 in1013.5 mb - 0.00 in0.0 mm 0.15 in3.8 mm
11:45 PM 58.8°F14.9°C 53.3°F11.8°C 82% 2.3 mph SE3.7 kmh SE 3.5 mph5.6 kmh 29.93 in1013.5 mb - 0.00 in0.0 mm 0.15 in3.8 mm
11:50 PM 58.4°F14.7°C 52.9°F11.6°C 82% 1.2 mph SE1.9 kmh SE 2.3 mph3.7 kmh 29.93 in1013.5 mb - 0.00 in0.0 mm 0.15 in3.8 mm
11:55 PM 58.2°F14.6°C 53.1°F11.7°C 83% 1.2 mph SE1.9 kmh SE 3.5 mph5.6 kmh 29.93 in1013.5 mb - 0.00 in0.0 mm 0.15 in3.8 mm